If you wish to contribute or participate in the discussions about articles you are invited to join SKYbrary as a registered user

 Actions

Namibe Airport

From SKYbrary Wiki

FNMO
Airport
ICAO: FNMO – IATA: MSZ
Summary
Name Namibe Airport
Region Africa
Territory Angola AO.gif
Location , Namibe
Serving Mocamedes
Elevation 64.008 m
210 ft
210 ft64.008 m
Coordinates 15° 15' 40.40" S, 12° 8' 48.32" E
Runways
Designator Length Width Surface ROPS
8/26 2500 m8,202.1 ft
45 m147.638 ft
ASP /


METAR
Observation FNMO 181400Z 33010KT 9999 BKN014 22/18 Q1014
Station Namibe Airport
Date/Time 18 July 2019 14:00:00
Wind direction 330°
Wind speed 10 kts
Lowest cloud amount broken clouds
Temperature 22°C
Dew point 18°C
Humidity 78%
QNH 1014 hPa
Weather condition n/a